Time;durP1;ratioP1;P1;durP2;ratioP2;P2;SDS_P1;SDS_P2;PMS_P1;PMS_P2;Temp;Humidity;BMP_temperature;BMP_pressure;BME280_temperature;BME280_humidity;BME280_pressure;Samples;Min_cycle;Max_cycle;Signal;HPM_P1;HPM_P2
2023/10/09 03:10:52;;;;;;;1.80;1.10;;;;;;;13.19;38.97;99897.91;105676;1282;600293;-67
2023/10/09 03:13:21;;;;;;;1.30;1.10;;;;;;;14.82;35.74;99893.99;107452;1264;59804;-66
2023/10/09 03:15:51;;;;;;;1.50;1.00;;;;;;;15.07;35.57;99891.17;107381;1263;59242;-66
2023/10/09 03:18:19;;;;;;;3.20;1.10;;;;;;;15.27;35.00;99888.19;107237;1264;70880;-66
2023/10/09 03:20:47;;;;;;;1.70;1.00;;;;;;;15.36;35.03;99887.27;107267;1269;68711;-66
2023/10/09 03:23:14;;;;;;;3.70;1.10;;;;;;;15.14;35.31;99891.97;107283;1269;71723;-67
2023/10/09 03:25:45;;;;;;;3.60;1.30;;;;;;;15.09;34.93;99888.89;107289;1264;159197;-65
2023/10/09 03:28:15;;;;;;;2.60;1.30;;;;;;;15.06;35.20;99893.86;107424;1264;60197;-65
2023/10/09 03:30:46;;;;;;;3.70;1.10;;;;;;;14.64;35.85;99891.19;107473;1267;72258;-66
2023/10/09 03:33:15;;;;;;;2.40;1.20;;;;;;;14.64;35.70;99897.02;107463;1263;70046;-67
2023/10/09 03:35:43;;;;;;;2.40;1.20;;;;;;;14.81;35.66;99895.52;107390;1264;71435;-67
2023/10/09 03:38:16;;;;;;;3.60;1.10;;;;;;;14.63;35.36;99898.27;107468;1263;60856;-66
2023/10/09 03:40:43;;;;;;;1.60;1.00;;;;;;;14.71;35.13;99902.09;107417;1263;59554;-66
2023/10/09 03:43:11;;;;;;;3.00;1.00;;;;;;;14.60;35.20;99907.48;108265;1251;72947;-63
2023/10/09 03:45:45;;;;;;;4.00;1.50;;;;;;;14.54;35.01;99907.98;108226;1251;69522;-65
2023/10/09 03:48:21;;;;;;;2.70;1.10;;;;;;;14.59;35.45;99912.68;108203;1254;70824;-66
2023/10/09 03:50:48;;;;;;;3.80;1.20;;;;;;;14.47;35.28;99920.92;108170;1253;62962;-65
2023/10/09 03:53:16;;;;;;;3.40;1.20;;;;;;;14.24;35.73;99924.14;108203;1251;60096;-63
2023/10/09 03:55:44;;;;;;;3.50;1.30;;;;;;;14.17;36.04;99930.89;108219;1251;70764;-63
2023/10/09 03:58:11;;;;;;;7.60;1.30;;;;;;;14.12;35.92;99932.03;108251;1251;70031;-64
2023/10/09 04:00:46;;;;;;;4.10;1.20;;;;;;;14.15;36.05;99934.14;108230;1257;71193;-64
2023/10/09 04:03:15;;;;;;;1.70;1.10;;;;;;;14.08;36.44;99940.53;108218;1251;60839;-66
2023/10/09 04:05:43;;;;;;;3.90;1.30;;;;;;;13.96;36.68;99938.39;108251;1256;59535;-64
2023/10/09 04:08:19;;;;;;;5.00;1.20;;;;;;;13.92;37.07;99951.97;108273;1256;72943;-66
2023/10/09 04:10:53;;;;;;;3.90;1.40;;;;;;;13.91;37.52;99944.98;108250;1251;70301;-66
2023/10/09 04:13:32;;;;;;;2.30;1.00;;;;;;;13.97;37.54;99957.52;108292;1256;71074;-66
2023/10/09 04:18:52;;;;;;;2.70;1.10;;;;;;;13.99;37.89;99968.23;108230;1251;60003;-65
2023/10/09 04:21:27;;;;;;;4.50;1.60;;;;;;;13.96;37.99;99970.34;108219;1252;73002;-66
2023/10/09 04:26:46;;;;;;;2.90;1.20;;;;;;;14.00;38.57;99971.89;108180;1251;70122;-66
2023/10/09 04:29:26;;;;;;;2.60;1.20;;;;;;;14.18;38.16;99977.29;108193;1251;60903;-65
2023/10/09 04:32:00;;;;;;;4.20;1.10;;;;;;;14.27;38.01;99980.30;108182;1256;60074;-66
2023/10/09 04:34:34;;;;;;;2.70;1.10;;;;;;;14.35;38.00;99982.34;108202;1251;73073;-66
2023/10/09 04:39:36;;;;;;;4.10;1.00;;;;;;;14.33;38.30;99983.83;108265;1251;72714;-67
2023/10/09 04:42:26;;;;;;;4.30;1.20;;;;;;;14.21;38.24;99990.31;108103;1254;60902;-67
2023/10/09 04:47:37;;;;;;;2.30;1.30;;;;;;;13.81;39.02;100000.38;108148;1254;73039;-65
2023/10/09 04:50:08;;;;;;;2.30;1.20;;;;;;;14.11;38.29;100001.98;108079;1254;70406;-67
2023/10/09 05:02:54;;;;;;;4.70;1.40;;;;;;;14.51;37.70;100026.33;108090;1254;69979;-67
2023/10/09 05:08:20;;;;;;;2.60;1.20;;;;;;;14.65;37.53;100040.92;108126;1251;60956;-66
2023/10/09 05:16:37;;;;;;;4.70;1.50;;;;;;;14.75;37.51;100050.28;108085;1254;70526;-67
2023/10/09 05:19:08;;;;;;;3.10;1.50;;;;;;;14.79;37.51;100052.55;108100;1253;70623;-66
2023/10/09 05:21:44;;;;;;;3.10;1.00;;;;;;;14.78;37.33;100057.74;108006;1254;60875;-66
2023/10/09 05:29:34;;;;;;;4.10;1.40;;;;;;;14.91;37.08;100063.20;108112;1254;69969;-68
2023/10/09 05:32:27;;;;;;;4.60;1.30;;;;;;;15.14;36.95;100060.81;108104;1254;72704;-68
2023/10/09 05:37:33;;;;;;;4.00;1.50;;;;;;;15.07;36.80;100066.86;108160;1257;60008;-67
2023/10/09 05:42:43;;;;;;;;;;;;;;;14.99;36.99;100079.01;108264;1252;70158;-65
2023/10/09 05:57:32;;;;;;;7.20;1.10;;;;;;;14.99;37.01;100085.55;108197;1257;70120;-67
2023/10/09 06:03:55;;;;;;;3.90;1.10;;;;;;;15.05;36.76;100092.98;108184;1251;59559;-67
2023/10/09 06:09:35;;;;;;;2.60;1.20;;;;;;;15.55;36.03;100093.13;108326;1250;70557;-68
2023/10/09 06:12:33;;;;;;;2.60;1.00;;;;;;;15.66;35.65;100095.52;108306;1251;71241;-67
2023/10/09 06:14:49;;;;;;;4.00;1.40;;;;;;;15.65;35.42;100099.83;108295;1250;60864;-67
2023/10/09 06:17:23;;;;;;;3.80;1.30;;;;;;;15.80;35.14;100101.42;108297;1251;59601;-68
2023/10/09 06:19:58;;;;;;;5.80;1.40;;;;;;;15.74;35.18;100109.20;108288;1256;73007;-67
2023/10/09 06:25:09;;;;;;;4.60;1.40;;;;;;;16.01;34.79;100116.31;108299;1251;73472;-67
2023/10/09 06:35:35;;;;;;;4.40;1.30;;;;;;;16.39;34.12;100131.36;108245;1251;68228;-67
2023/10/09 06:45:58;;;;;;;3.30;1.20;;;;;;;17.11;32.81;100127.11;108408;1250;72229;-67
2023/10/09 06:51:40;;;;;;;7.50;1.50;;;;;;;18.00;31.80;100118.39;108388;1251;73794;-66
2023/10/09 06:54:14;;;;;;;4.70;1.20;;;;;;;18.89;30.48;100114.83;108299;1251;60272;-67
2023/10/09 06:59:24;;;;;;;3.40;1.20;;;;;;;20.10;28.84;100118.39;108382;1251;72179;-68
2023/10/09 07:07:20;;;;;;;1.80;0.90;;;;;;;22.76;25.46;100113.36;108361;1251;60646;-69
2023/10/09 07:12:42;;;;;;;1.60;1.00;;;;;;;23.91;23.56;100110.52;108368;1256;71346;-68
2023/10/09 07:18:18;;;;;;;1.90;1.10;;;;;;;24.19;23.23;100122.60;108384;1251;72271;-68
2023/10/09 07:20:58;;;;;;;1.80;1.00;;;;;;;24.14;23.02;100121.59;108331;1250;60129;-68
2023/10/09 07:23:32;;;;;;;1.20;0.70;;;;;;;24.20;22.87;100125.86;108321;1251;59991;-68
2023/10/09 07:26:17;;;;;;;2.40;0.90;;;;;;;24.23;22.76;100126.50;108293;1251;71940;-68
2023/10/09 07:28:48;;;;;;;2.40;0.90;;;;;;;24.49;22.26;100133.09;108299;1251;70054;-68
2023/10/09 07:31:27;;;;;;;2.00;0.90;;;;;;;24.64;22.02;100126.80;108324;1257;72022;-67
2023/10/09 07:33:57;;;;;;;3.90;0.90;;;;;;;24.99;21.48;100132.19;108259;1254;60309;-68
2023/10/09 07:36:36;;;;;;;2.00;1.20;;;;;;;25.52;21.08;100130.00;108419;1251;60290;-67
2023/10/09 07:39:13;;;;;;;2.30;1.00;;;;;;;26.20;20.58;100128.27;108359;1251;73810;-68
2023/10/09 07:41:55;;;;;;;1.20;0.80;;;;;;;26.54;20.34;100128.71;108348;1251;70488;-66
2023/10/09 07:44:38;;;;;;;3.90;1.20;;;;;;;26.78;20.07;100129.61;108269;1254;73263;-67
2023/10/09 07:49:53;;;;;;;3.30;1.00;;;;;;;26.09;20.14;100139.47;108194;1251;60437;-68
2023/10/09 07:52:26;;;;;;;1.30;0.80;;;;;;;25.43;20.78;100147.86;108200;1251;73862;-67
2023/10/09 07:55:01;;;;;;;3.30;0.70;;;;;;;25.06;21.21;100149.63;108069;1259;70345;-66
2023/10/09 07:57:38;;;;;;;1.70;0.70;;;;;;;25.04;21.49;100146.92;108259;1256;72681;-69
2023/10/09 08:00:36;;;;;;;1.00;0.60;;;;;;;25.71;20.78;100142.36;108242;1253;60514;-68
2023/10/09 08:03:00;;;;;;;5.70;1.40;;;;;;;25.91;20.12;100145.85;108239;1251;60488;-68
2023/10/09 08:05:33;;;;;;;1.70;0.90;;;;;;;26.17;20.07;100144.89;108187;1251;73933;-68
2023/10/09 08:08:39;;;;;;;3.20;1.00;;;;;;;26.47;19.94;100145.44;108296;1256;69476;-68
2023/10/09 08:11:59;;;;;;;2.70;1.00;;;;;;;26.19;19.68;100148.31;108233;1251;72479;-68
2023/10/09 08:14:41;;;;;;;2.50;0.90;;;;;;;26.41;19.57;100152.52;108072;1257;60386;-68
2023/10/09 08:19:54;;;;;;;4.20;1.20;;;;;;;26.41;19.64;100146.58;108183;1251;72556;-67
2023/10/09 08:24:56;;;;;;;;;;;;;;;26.47;18.80;100138.92;108198;1251;72630;-67
2023/10/09 08:33:00;;;;;;;6.60;0.90;;;;;;;27.79;17.85;100141.17;108116;1251;74235;-68
2023/10/09 08:35:51;;;;;;;2.20;0.70;;;;;;;28.04;17.60;100138.07;108233;1251;68729;-68
2023/10/09 08:38:26;;;;;;;2.30;1.00;;;;;;;28.09;17.41;100133.23;108165;1256;72628;-69
2023/10/09 08:40:58;;;;;;;3.30;0.80;;;;;;;28.14;17.36;100145.85;108336;1251;60275;-68
2023/10/09 08:43:30;;;;;;;2.80;1.00;;;;;;;28.08;16.89;100144.52;108396;1251;60369;-69
2023/10/09 08:46:00;;;;;;;2.30;1.00;;;;;;;28.11;17.20;100147.58;108377;1251;73801;-69
2023/10/09 08:48:29;;;;;;;3.20;0.90;;;;;;;28.60;17.10;100151.82;108310;1252;70567;-68
2023/10/09 08:50:57;;;;;;;1.40;0.70;;;;;;;28.87;16.90;100156.25;108163;1260;74776;-67
2023/10/09 08:53:27;;;;;;;1.80;0.80;;;;;;;28.99;16.69;100156.30;108340;1251;60976;-69
2023/10/09 08:55:55;;;;;;;3.80;0.90;;;;;;;28.91;16.63;100159.02;108360;1250;60976;-69
2023/10/09 08:58:36;;;;;;;5.50;1.70;;;;;;;28.50;16.85;100158.61;108376;1256;73844;-69
2023/10/09 09:01:04;;;;;;;4.30;0.80;;;;;;;27.75;17.13;100156.93;108369;1251;69189;-68
2023/10/09 09:03:40;;;;;;;1.70;0.90;;;;;;;27.46;17.71;100158.20;108383;1256;71431;-68
2023/10/09 09:06:08;;;;;;;2.80;0.80;;;;;;;27.55;17.95;100159.44;108356;1253;60350;-68
2023/10/09 09:08:36;;;;;;;3.60;1.20;;;;;;;26.95;17.87;100157.71;108321;1253;60421;-69
2023/10/09 09:11:16;;;;;;;5.10;1.00;;;;;;;27.08;18.13;100166.23;108332;1256;74131;-67
2023/10/09 09:13:48;;;;;;;3.90;1.10;;;;;;;26.90;17.59;100165.61;108226;1251;70229;-66
2023/10/09 09:16:17;;;;;;;2.70;0.70;;;;;;;26.93;17.93;100156.81;108269;1257;72788;-66
2023/10/09 09:19:02;;;;;;;2.30;0.80;;;;;;;26.47;18.28;100164.65;108225;1257;60296;-65
2023/10/09 09:21:38;;;;;;;4.90;0.90;;;;;;;27.25;17.52;100168.38;108228;1251;60331;-67
2023/10/09 09:26:58;;;;;;;1.40;0.80;;;;;;;27.88;16.82;100164.04;108280;1256;70762;-68
2023/10/09 09:29:38;;;;;;;1.80;0.70;;;;;;;27.92;16.44;100165.95;108285;1257;72469;-68
2023/10/09 09:32:18;;;;;;;2.60;0.70;;;;;;;28.03;16.19;100164.90;108222;1257;60430;-68
2023/10/09 09:35:01;;;;;;;2.10;0.70;;;;;;;28.21;16.26;100157.48;108191;1251;60248;-69
2023/10/09 09:37:30;;;;;;;1.80;0.60;;;;;;;28.17;16.16;100164.94;108186;1251;76520;-68
2023/10/09 09:40:00;;;;;;;4.20;0.70;;;;;;;27.74;16.37;100168.56;108119;1251;70389;-69
2023/10/09 09:42:31;;;;;;;3.20;1.00;;;;;;;26.89;16.46;100165.68;108242;1251;71773;-69
2023/10/09 09:45:00;;;;;;;2.00;0.80;;;;;;;26.66;16.28;100167.04;108378;1256;61145;-69
2023/10/09 09:47:27;;;;;;;10.70;1.40;;;;;;;26.90;16.60;100171.73;108263;1250;60305;-68
2023/10/09 09:50:11;;;;;;;6.60;1.50;;;;;;;27.14;16.32;100168.37;108301;1251;73772;-68
2023/10/09 09:52:39;;;;;;;4.10;0.80;;;;;;;27.42;16.25;100167.90;108369;1256;70230;-68
2023/10/09 09:55:17;;;;;;;2.70;1.10;;;;;;;27.40;16.13;100166.06;108416;1251;72641;-69
2023/10/09 09:57:51;;;;;;;1.80;0.70;;;;;;;27.48;15.80;100153.71;108321;1251;60431;-70
2023/10/09 10:00:42;;;;;;;1.50;0.70;;;;;;;26.99;15.95;100148.60;108347;1251;60370;-69
2023/10/09 10:03:13;;;;;;;1.90;0.70;;;;;;;27.36;16.34;100156.60;108408;1251;74063;-69
2023/10/09 10:05:46;;;;;;;3.40;0.90;;;;;;;27.55;15.77;100155.52;108375;1251;70602;-68
2023/10/09 10:08:20;;;;;;;1.60;0.90;;;;;;;27.58;15.59;100152.59;108362;1254;71664;-70
2023/10/09 10:10:58;;;;;;;10.90;1.20;;;;;;;27.43;15.90;100164.73;108269;1254;60360;-69
2023/10/09 10:13:41;;;;;;;3.20;1.10;;;;;;;27.55;15.21;100158.17;108360;1251;60584;-68
2023/10/09 10:16:13;;;;;;;2.40;0.80;;;;;;;27.63;15.60;100163.99;108347;1251;73900;-69
2023/10/09 10:21:48;;;;;;;5.60;0.80;;;;;;;27.69;15.70;100148.68;108314;1256;71748;-67
2023/10/09 10:24:52;;;;;;;7.90;0.70;;;;;;;27.93;15.52;100155.77;108388;1252;60325;-68
2023/10/09 10:27:26;;;;;;;1.50;0.80;;;;;;;27.88;15.58;100158.84;108404;1256;60408;-69
2023/10/09 10:30:23;;;;;;;1.60;0.50;;;;;;;27.35;15.03;100156.20;108309;1250;74350;-69
2023/10/09 10:32:51;;;;;;;2.50;0.80;;;;;;;26.79;15.44;100153.61;108326;1251;70431;-69
2023/10/09 10:38:38;;;;;;;3.80;1.00;;;;;;;27.24;15.74;100140.60;108356;1252;59532;-68
2023/10/09 10:41:16;;;;;;;4.00;1.00;;;;;;;27.46;15.50;100140.96;108307;1256;60423;-67
2023/10/09 10:43:47;;;;;;;2.20;0.80;;;;;;;27.36;15.73;100146.35;108174;1250;73950;-68
2023/10/09 10:46:30;;;;;;;2.90;0.90;;;;;;;27.18;15.92;100136.71;108260;1251;70557;-69
2023/10/09 10:49:00;;;;;;;3.50;0.90;;;;;;;27.27;15.51;100140.27;108223;1254;71773;-68
2023/10/09 10:51:40;;;;;;;1.40;0.70;;;;;;;27.42;15.47;100139.61;108267;1254;61234;-69
2023/10/09 10:54:45;;;;;;;3.00;0.90;;;;;;;27.38;15.40;100135.33;108255;1257;60322;-67
2023/10/09 10:57:28;;;;;;;1.80;0.70;;;;;;;28.03;15.26;100134.34;108240;1251;73064;-69
2023/10/09 11:00:14;;;;;;;2.20;0.90;;;;;;;28.07;15.30;100127.58;108245;1256;70065;-70
2023/10/09 11:02:47;;;;;;;5.10;1.60;;;;;;;27.88;15.53;100127.23;108222;1252;72761;-70
2023/10/09 11:05:23;;;;;;;2.10;0.70;;;;;;;27.95;15.27;100117.38;108174;1254;60466;-70
2023/10/09 11:07:56;;;;;;;3.90;1.00;;;;;;;28.25;15.16;100111.55;108271;1256;60307;-69
2023/10/09 11:10:28;;;;;;;1.10;0.60;;;;;;;28.35;15.25;100114.61;108158;1251;73831;-68
2023/10/09 11:18:42;;;;;;;2.10;0.80;;;;;;;27.82;15.64;100104.97;107860;1251;59937;-69
2023/10/09 11:23:38;;;;;;;3.10;0.70;;;;;;;27.60;15.81;100102.48;108186;1257;75960;-68
2023/10/09 11:26:23;;;;;;;2.60;0.80;;;;;;;27.50;15.73;100104.84;108196;1251;70324;-69
2023/10/09 11:29:23;;;;;;;2.30;0.60;;;;;;;27.52;15.55;100105.18;108231;1251;71361;-69
2023/10/09 11:32:17;;;;;;;1.20;0.60;;;;;;;27.51;16.06;100108.70;108120;1258;60299;-69
2023/10/09 11:34:54;;;;;;;2.70;1.00;;;;;;;27.37;16.19;100108.97;108194;1257;60474;-69
2023/10/09 11:39:59;;;;;;;2.40;1.00;;;;;;;26.15;16.87;100114.91;108366;1251;69525;-68
2023/10/09 11:45:54;;;;;;;2.30;1.10;;;;;;;25.54;17.16;100104.88;108296;1251;60318;-67
2023/10/09 11:48:46;;;;;;;2.30;1.40;;;;;;;25.12;17.80;100100.39;108114;1251;62256;-69
2023/10/09 11:51:21;;;;;;;5.90;1.50;;;;;;;24.48;18.45;100106.96;108191;1251;74638;-68
2023/10/09 11:53:58;;;;;;;2.70;1.10;;;;;;;23.83;19.08;100105.30;108265;1256;69939;-67
2023/10/09 11:56:27;;;;;;;3.00;1.30;;;;;;;23.74;19.39;100111.86;108184;1254;71251;-68
2023/10/09 11:58:58;;;;;;;5.30;1.40;;;;;;;23.53;19.68;100114.34;108212;1257;60789;-68
2023/10/09 12:01:35;;;;;;;2.40;1.40;;;;;;;23.42;19.81;100125.13;108235;1257;60479;-68
2023/10/09 12:04:03;;;;;;;5.30;1.80;;;;;;;23.48;19.92;100125.54;108260;1251;73176;-68
2023/10/09 12:06:32;;;;;;;2.70;1.40;;;;;;;23.39;20.14;100124.75;108244;1251;68529;-67
2023/10/09 12:09:00;;;;;;;2.10;1.00;;;;;;;23.09;19.97;100126.38;108215;1251;73561;-68
2023/10/09 12:11:31;;;;;;;2.60;1.20;;;;;;;22.98;20.51;100126.83;108228;1251;60325;-68
2023/10/09 12:14:00;;;;;;;3.10;1.20;;;;;;;22.96;20.23;100129.33;108279;1251;60048;-68
2023/10/09 12:16:28;;;;;;;4.70;1.20;;;;;;;22.72;20.66;100125.52;108227;1252;72948;-66
2023/10/09 12:18:57;;;;;;;3.00;1.30;;;;;;;22.42;21.30;100131.01;108196;1251;69308;-67
2023/10/09 12:21:27;;;;;;;2.20;0.90;;;;;;;22.33;21.00;100133.39;108173;1251;72666;-68
2023/10/09 12:23:57;;;;;;;;;;;;;;;22.42;20.91;100128.33;108231;1251;60521;-67
2023/10/09 12:26:34;;;;;;;4.00;1.00;;;;;;;22.27;21.20;100122.06;108149;1257;60385;-69
2023/10/09 12:29:03;;;;;;;6.30;1.20;;;;;;;21.88;21.53;100119.64;108259;1251;72803;-68
2023/10/09 12:31:33;;;;;;;2.20;1.20;;;;;;;21.85;21.82;100119.51;108203;1256;72226;-68
2023/10/09 12:34:02;;;;;;;1.30;1.00;;;;;;;21.99;21.57;100120.97;108198;1254;71508;-68
2023/10/09 12:36:30;;;;;;;1.60;0.80;;;;;;;21.88;21.78;100125.88;108228;1251;60329;-69
2023/10/09 12:39:01;;;;;;;2.00;1.10;;;;;;;21.84;22.11;100126.41;108261;1256;60468;-68
2023/10/09 12:41:33;;;;;;;1.80;0.80;;;;;;;21.73;21.92;100125.23;108324;1253;72994;-69
2023/10/09 12:44:02;;;;;;;2.90;1.00;;;;;;;21.65;22.07;100123.89;108257;1251;70242;-68
2023/10/09 12:46:37;;;;;;;3.70;0.70;;;;;;;21.60;22.24;100124.52;108208;1251;71511;-68
2023/10/09 12:49:05;;;;;;;3.90;1.10;;;;;;;21.41;22.21;100122.67;108125;1260;59722;-68
2023/10/09 12:51:33;;;;;;;3.20;0.80;;;;;;;21.21;22.88;100123.39;108301;1251;60154;-68
2023/10/09 12:54:03;;;;;;;1.90;0.90;;;;;;;21.31;22.48;100122.17;108245;1251;73836;-68
2023/10/09 12:56:37;;;;;;;3.70;0.70;;;;;;;21.19;22.76;100115.73;108193;1251;69391;-68
2023/10/09 12:59:06;;;;;;;1.60;0.80;;;;;;;21.00;22.96;100113.84;108202;1254;73572;-68
2023/10/09 13:01:42;;;;;;;2.90;1.10;;;;;;;21.02;22.98;100114.59;108259;1252;60319;-67
2023/10/09 13:04:11;;;;;;;2.60;0.90;;;;;;;21.11;23.30;100116.34;108282;1251;60330;-68
2023/10/09 13:06:45;;;;;;;2.00;1.00;;;;;;;21.02;23.38;100115.27;108200;1251;72674;-67
2023/10/09 13:09:14;;;;;;;3.50;1.10;;;;;;;20.86;23.25;100122.30;108316;1251;70182;-67
2023/10/09 13:11:43;;;;;;;3.70;1.20;;;;;;;20.80;23.85;100123.35;108260;1256;72664;-66
2023/10/09 13:14:16;;;;;;;2.60;1.30;;;;;;;20.65;23.54;100117.52;108229;1253;61025;-68
2023/10/09 13:16:45;;;;;;;3.00;1.10;;;;;;;20.40;23.70;100123.71;108189;1251;60357;-68
2023/10/09 13:19:13;;;;;;;1.90;0.80;;;;;;;20.20;24.08;100122.27;108191;1251;75230;-68
2023/10/09 13:21:42;;;;;;;1.90;1.00;;;;;;;20.09;24.04;100128.79;108236;1251;70690;-67
2023/10/09 13:24:24;;;;;;;5.30;1.10;;;;;;;20.07;24.29;100122.71;108313;1251;74105;-69
2023/10/09 13:26:57;;;;;;;4.20;0.90;;;;;;;20.25;24.10;100129.67;108165;1251;60430;-67
2023/10/09 13:29:29;;;;;;;5.00;1.10;;;;;;;19.89;24.20;100125.70;108246;1251;60284;-67
2023/10/09 13:32:02;;;;;;;2.40;0.90;;;;;;;19.89;24.69;100124.04;108221;1251;72699;-68
2023/10/09 13:34:33;;;;;;;1.70;1.00;;;;;;;19.86;24.43;100123.60;108217;1251;69950;-68
2023/10/09 13:37:11;;;;;;;4.20;0.90;;;;;;;19.81;24.65;100127.31;108269;1251;70679;-68
2023/10/09 13:39:56;;;;;;;2.40;1.00;;;;;;;19.78;24.67;100123.11;108191;1254;60884;-67
2023/10/09 13:42:25;;;;;;;4.00;1.10;;;;;;;19.81;24.52;100122.91;108285;1251;62235;-65
2023/10/09 13:44:53;;;;;;;3.00;1.00;;;;;;;19.61;24.61;100121.36;108226;1251;74671;-67
2023/10/09 13:47:23;;;;;;;6.00;1.20;;;;;;;19.58;25.14;100120.48;108250;1257;71710;-67
2023/10/09 13:49:52;;;;;;;1.90;0.90;;;;;;;19.56;24.63;100122.30;108209;1251;72636;-67
2023/10/09 13:52:21;;;;;;;2.70;1.20;;;;;;;19.66;24.81;100120.49;108203;1257;62221;-69
2023/10/09 13:54:50;;;;;;;1.50;1.20;;;;;;;19.64;24.54;100116.30;108175;1251;60417;-68
2023/10/09 13:57:22;;;;;;;2.10;1.00;;;;;;;19.67;24.60;100117.94;108245;1251;73804;-68
2023/10/09 13:59:49;;;;;;;1.60;0.80;;;;;;;19.54;24.72;100118.51;108215;1251;69946;-67
2023/10/09 14:02:18;;;;;;;4.30;1.10;;;;;;;19.34;25.13;100115.54;108164;1254;71612;-66
2023/10/09 14:04:51;;;;;;;1.90;1.00;;;;;;;19.25;25.38;100121.66;108211;1251;60526;-67
2023/10/09 14:07:20;;;;;;;4.90;1.10;;;;;;;19.37;25.33;100124.92;108163;1251;60310;-65
2023/10/09 14:10:06;;;;;;;4.20;1.00;;;;;;;19.17;25.42;100121.39;108271;1251;75158;-67
2023/10/09 14:12:39;;;;;;;3.60;1.20;;;;;;;19.20;25.60;100120.47;108273;1251;70025;-67
2023/10/09 14:15:17;;;;;;;3.40;1.00;;;;;;;19.37;25.56;100128.30;108268;1251;72449;-66
2023/10/09 14:17:46;;;;;;;4.30;1.30;;;;;;;19.49;25.28;100121.52;108202;1256;60459;-66
2023/10/09 14:20:30;;;;;;;2.80;1.20;;;;;;;19.42;25.25;100123.64;108199;1253;59179;-68
2023/10/09 14:23:06;;;;;;;2.70;1.20;;;;;;;19.33;25.82;100122.52;108144;1251;73878;-69
2023/10/09 14:25:41;;;;;;;2.50;1.10;;;;;;;19.31;25.52;100123.59;108170;1254;70262;-68
2023/10/09 14:28:10;;;;;;;3.00;1.00;;;;;;;19.20;25.77;100122.81;108178;1251;72723;-67
2023/10/09 14:30:41;;;;;;;2.50;1.00;;;;;;;19.21;25.45;100124.66;108142;1251;61673;-68
2023/10/09 14:33:12;;;;;;;2.90;1.00;;;;;;;19.27;25.31;100127.81;108216;1251;60366;-65
2023/10/09 14:35:40;;;;;;;4.90;1.50;;;;;;;19.31;25.96;100131.45;108258;1251;72526;-68
2023/10/09 14:38:15;;;;;;;2.70;1.20;;;;;;;19.22;25.48;100127.29;108296;1251;69002;-65
2023/10/09 14:40:43;;;;;;;3.10;1.20;;;;;;;19.07;25.72;100131.89;109410;1251;72389;-68
2023/10/09 14:43:21;;;;;;;2.20;1.40;;;;;;;19.13;25.92;100132.05;109466;1251;58847;-68
2023/10/09 14:45:49;;;;;;;5.60;1.40;;;;;;;19.00;25.74;100136.88;109449;1250;59924;-68
2023/10/09 14:48:19;;;;;;;3.20;1.10;;;;;;;18.87;26.37;100138.17;109452;1250;72831;-69
2023/10/09 14:50:53;;;;;;;3.30;1.50;;;;;;;18.98;26.17;100138.78;109462;1251;69974;-69
2023/10/09 14:53:26;;;;;;;2.30;1.00;;;;;;;19.11;25.62;100138.02;109457;1253;71383;-69
2023/10/09 14:55:55;;;;;;;5.40;1.10;;;;;;;19.04;26.15;100143.64;109473;1250;60049;-69
2023/10/09 14:58:25;;;;;;;5.40;1.20;;;;;;;18.84;26.07;100148.48;109435;1250;58860;-68
2023/10/09 15:00:54;;;;;;;2.60;1.20;;;;;;;18.88;25.86;100151.09;109467;1251;73860;-69
2023/10/09 15:03:22;;;;;;;3.80;1.20;;;;;;;19.04;26.20;100151.88;109460;1251;69929;-68
2023/10/09 15:05:49;;;;;;;2.90;1.30;;;;;;;18.85;26.03;100156.11;109474;1251;72678;-70
2023/10/09 15:08:17;;;;;;;8.10;1.50;;;;;;;18.90;26.15;100157.69;109470;1250;58151;-68
2023/10/09 15:10:49;;;;;;;2.90;1.10;;;;;;;18.81;26.21;100157.98;109489;1250;58372;-69
2023/10/09 15:16:26;;;;;;;3.70;1.40;;;;;;;18.63;26.24;100167.55;104957;1289;601216;-67
2023/10/09 15:18:54;;;;;;;3.40;1.10;;;;;;;18.35;26.74;100172.73;107374;1264;59251;-68
2023/10/09 15:21:32;;;;;;;1.80;1.10;;;;;;;18.40;26.54;100172.73;107374;1264;59142;-67
2023/10/09 15:23:59;;;;;;;3.50;1.20;;;;;;;18.37;26.59;100178.27;107351;1264;73635;-67
2023/10/09 15:27:57;;;;;;;2.30;1.50;;;;;;;16.30;29.12;100185.73;104827;1291;599836;-68
2023/10/09 15:30:27;;;;;;;4.80;1.50;;;;;;;17.73;27.36;100179.46;107300;1266;59259;-68
2023/10/09 15:32:56;;;;;;;3.80;1.30;;;;;;;17.83;27.31;100182.40;107263;1267;61488;-67
2023/10/09 15:35:23;;;;;;;3.30;1.40;;;;;;;17.82;27.47;100180.69;107278;1265;71129;-68
2023/10/09 15:37:52;;;;;;;5.60;1.60;;;;;;;17.76;27.23;100185.01;107265;1269;70405;-67
2023/10/09 15:40:24;;;;;;;4.40;1.40;;;;;;;17.63;27.88;100186.91;107167;1263;239771;-68
2023/10/09 15:42:50;;;;;;;3.60;1.60;;;;;;;17.51;27.68;100188.40;107424;1262;60825;-67
2023/10/09 15:45:21;;;;;;;4.60;1.90;;;;;;;17.52;27.63;100186.55;107457;1263;59227;-67
2023/10/09 15:47:50;;;;;;;4.60;1.60;;;;;;;17.52;28.53;100189.74;107532;1263;71919;-68
2023/10/09 15:50:19;;;;;;;6.90;1.70;;;;;;;17.51;28.14;100190.71;107467;1266;70230;-68
2023/10/09 15:52:47;;;;;;;6.20;1.90;;;;;;;17.54;28.27;100191.05;107462;1263;71476;-68
2023/10/09 15:55:14;;;;;;;2.90;1.80;;;;;;;17.43;28.17;100190.85;107389;1263;59653;-68
2023/10/09 15:57:41;;;;;;;4.40;1.90;;;;;;;17.27;28.13;100192.92;107470;1262;60175;-68
2023/10/09 16:00:17;;;;;;;4.20;2.00;;;;;;;17.23;28.43;100194.27;107389;1263;73154;-67
2023/10/09 16:02:45;;;;;;;5.90;1.90;;;;;;;17.23;28.72;100195.70;107941;1257;70252;-68
2023/10/09 16:05:12;;;;;;;5.10;1.80;;;;;;;17.27;28.55;100195.10;107952;1258;72322;-67
2023/10/09 16:07:39;;;;;;;9.70;2.30;;;;;;;17.27;28.89;100199.13;107886;1256;59097;-68
2023/10/09 16:10:08;;;;;;;3.40;1.30;;;;;;;17.08;28.84;100201.27;107926;1256;60426;-67
2023/10/09 16:12:41;;;;;;;5.40;2.20;;;;;;;16.95;29.47;100201.70;107940;1256;72925;-68
2023/10/09 16:15:10;;;;;;;5.10;1.90;;;;;;;16.98;29.58;100202.40;107918;1257;70411;-67
2023/10/09 16:17:39;;;;;;;12.40;6.60;;;;;;;16.89;29.41;100202.95;107985;1257;72528;-68
2023/10/09 16:20:13;;;;;;;10.40;5.30;;;;;;;17.04;29.65;100205.97;107952;1256;59742;-67
2023/10/09 16:22:41;;;;;;;35.00;14.20;;;;;;;16.92;29.32;100209.12;107931;1257;60037;-67
2023/10/09 16:25:11;;;;;;;53.40;23.20;;;;;;;16.86;29.22;100209.52;107875;1257;71056;-67
2023/10/09 16:27:39;;;;;;;28.90;11.60;;;;;;;16.80;29.34;100216.09;107898;1257;71561;-68
2023/10/09 16:30:12;;;;;;;11.80;6.90;;;;;;;16.68;29.42;100217.33;107883;1258;73002;-67
2023/10/09 16:32:39;;;;;;;15.30;7.90;;;;;;;16.65;29.67;100218.62;107977;1257;59522;-67
2023/10/09 16:35:09;;;;;;;11.90;5.30;;;;;;;16.61;29.78;100216.89;107963;1257;60152;-67
2023/10/09 16:37:36;;;;;;;4.50;3.00;;;;;;;16.60;29.80;100216.42;108017;1257;73008;-68
2023/10/09 16:40:11;;;;;;;14.40;11.00;;;;;;;16.75;30.09;100218.51;107963;1257;70391;-67
2023/10/09 16:42:38;;;;;;;11.20;6.20;;;;;;;16.74;29.98;100225.12;107811;1257;72505;-67
2023/10/09 16:45:08;;;;;;;17.90;12.40;;;;;;;16.72;30.16;100227.39;108328;1253;59611;-66
2023/10/09 16:47:38;;;;;;;9.70;6.00;;;;;;;16.60;30.54;100222.98;108298;1254;59434;-67
2023/10/09 16:50:09;;;;;;;10.30;3.50;;;;;;;16.49;30.37;100225.41;108170;1256;73153;-66
2023/10/09 16:52:37;;;;;;;8.40;3.80;;;;;;;16.57;30.77;100228.83;108125;1253;70749;-67
2023/10/09 16:55:08;;;;;;;11.20;4.40;;;;;;;16.35;30.88;100229.40;108210;1252;70411;-67
2023/10/09 16:57:41;;;;;;;8.40;3.50;;;;;;;16.32;30.73;100227.64;108260;1254;59400;-68
2023/10/09 17:00:55;;;;;;;11.70;4.20;;;;;;;16.21;31.27;100227.23;108169;1253;59698;-67
2023/10/09 17:02:59;;;;;;;14.30;4.10;;;;;;;15.99;31.33;100223.40;108191;1252;72742;-68
2023/10/09 17:05:35;;;;;;;9.90;3.20;;;;;;;15.74;31.44;100219.17;108358;1254;70956;-67
2023/10/09 17:08:03;;;;;;;8.40;3.40;;;;;;;15.66;31.91;100222.08;108243;1254;72656;-67
2023/10/09 17:10:36;;;;;;;9.00;2.80;;;;;;;15.57;31.65;100221.13;108256;1253;59622;-67